createdAt,value
2022-12-25T00:00:53.470Z,99489.47
2022-12-25T00:27:02.017Z,99473.47
2022-12-25T00:28:04.618Z,99475.09
2022-12-25T00:29:06.903Z,99475.03
2022-12-25T00:30:09.791Z,99469.75
2022-12-25T00:31:17.226Z,99478.41
2022-12-25T00:32:19.896Z,99476.69
2022-12-25T00:33:22.207Z,99480.06
2022-12-25T00:34:24.540Z,99479.19
2022-12-25T00:35:26.717Z,99479.97
2022-12-25T00:36:29.332Z,99473.75
2022-12-25T00:37:32.601Z,99477.25
2022-12-25T00:38:37.042Z,99483.28
2022-12-25T00:39:40.091Z,99470.19
2022-12-25T00:40:44.036Z,99473.75
2022-12-25T00:42:04.622Z,99476.38
2022-12-25T00:43:06.955Z,99477.94
2022-12-25T00:44:12.449Z,99463.34
2022-12-25T00:45:15.978Z,99483.28
2022-12-25T00:46:18.451Z,99471.03
2022-12-25T00:47:20.832Z,99477.03
2022-12-25T00:48:23.248Z,99471.03
2022-12-25T00:49:25.535Z,99470.13
2022-12-25T00:50:27.862Z,99464.88
2022-12-25T00:51:30.065Z,99466.59
2022-12-25T00:52:32.413Z,99458.75
2022-12-25T00:53:34.684Z,99462.19
2022-12-25T00:54:37.708Z,99458.69
2022-12-25T00:55:39.930Z,99456.06
2022-12-25T00:56:42.169Z,99463.13
2022-12-25T00:57:44.455Z,99465.06
2022-12-25T00:58:47.084Z,99465.22
2022-12-25T00:59:49.253Z,99465.91
2022-12-25T01:00:52.278Z,99461.53
2022-12-25T01:01:54.743Z,99464.09
2022-12-25T01:02:57.282Z,99471.88
2022-12-25T01:04:00.153Z,99477.84
2022-12-25T01:05:02.442Z,99477.78
2022-12-25T01:06:07.524Z,99480.41
2022-12-25T01:07:09.793Z,99485.69
2022-12-25T01:08:12.123Z,99478.81
2022-12-25T01:09:32.794Z,99484.47
2022-12-25T01:10:35.080Z,99478.50
2022-12-25T01:11:37.265Z,99479.22
2022-12-25T01:12:41.808Z,99474.69
2022-12-25T01:13:44.052Z,99477.34
2022-12-25T01:14:46.580Z,99473.13
2022-12-25T01:15:49.264Z,99477.13
2022-12-25T01:16:51.584Z,99478.72
2022-12-25T01:17:53.891Z,99481.31
2022-12-25T01:18:56.352Z,99487.31
2022-12-25T01:19:58.583Z,99481.16
2022-12-25T01:21:11.618Z,99495.91
2022-12-25T01:22:16.204Z,99490.69
2022-12-25T01:23:18.476Z,99494.13
2022-12-25T01:24:21.156Z,99501.84
2022-12-25T01:25:23.318Z,99503.59
2022-12-25T01:26:27.182Z,99500.78
2022-12-25T01:27:29.702Z,99503.28
2022-12-25T01:28:32.001Z,99492.56
2022-12-25T01:29:34.265Z,99496.09
2022-12-25T01:30:36.738Z,99500.50
2022-12-25T01:31:39.068Z,99497.88
2022-12-25T01:32:41.522Z,99504.19
2022-12-25T01:33:44.812Z,99498.28
2022-12-25T01:34:51.980Z,99495.59
2022-12-25T01:35:58.664Z,99500.84
2022-12-25T01:37:01.083Z,99494.75
2022-12-25T01:38:03.316Z,99496.56
2022-12-25T01:39:06.005Z,99494.81
2022-12-25T01:40:08.946Z,99501.06
2022-12-25T01:41:12.799Z,99495.69
2022-12-25T01:42:19.764Z,99502.56
2022-12-25T01:43:28.659Z,99497.22
2022-12-25T01:44:36.632Z,99501.66
2022-12-25T01:45:43.725Z,99506.41
2022-12-25T01:46:46.203Z,99510.66
2022-12-25T01:47:49.824Z,99502.81
2022-12-25T01:48:54.026Z,99505.69
2022-12-25T01:49:56.251Z,99508.50
2022-12-25T01:51:11.219Z,99503.66
2022-12-25T01:52:23.642Z,99503.50
2022-12-25T01:53:26.989Z,99505.41
2022-12-25T01:54:33.330Z,99502.84
2022-12-25T01:55:37.972Z,99502.88
2022-12-25T01:56:43.944Z,99497.78
2022-12-25T01:57:47.342Z,99495.03
2022-12-25T01:58:51.305Z,99489.75
2022-12-25T01:59:56.838Z,99491.50
